Roswell International Air Center Airport
KROW : now visible

Airfield :











YOU CAN JOIN US ON...

 
LOGIN :

Register | Disclaimer

   EN    FR    IT 

 









Legend :    VFR   Marginal VFR   IFR   Intensive IFR   Very Intensive IFR
Visi :
Ceiling :
>= 8 km
>= 3000ft
5 to 8 km
1000 to 3000 ft
1500m to 5 km
500 to 1000 ft
800 to 1500m
200 to 500 ft
< 800m
< 200 ft
Symbols :   Thunderstorms  Fog  Heavy snow  Heavy precipitations  Wind > 20 kt






- Airport Elevation : 3671 ft
- IATA code : ROW


KROW - Roswell International Air Center

CURRENT METAR :
  • 110451Z AUTO 17012KT 7SM OVC005 06/03 A3028 RMK AO2 SLP239 T00560033

EXPIRED METARs :
  • 110351Z 17008KT 10SM OVC009 06/03 A3027 RMK AO2 SLP239 T00560028
  • 110335Z 18008KT 10SM BKN010 06/03 A3027 RMK AO2 T00560028
  • 110251Z 19005KT 10SM CLR 05/02 A3027 RMK AO2 SLP240 T00500022 51020

TAF KROW
Valid from the 11 at 04:00 until the 12 at 00:00 UTC


110339Z 1104/1124 18006KT P6SM BKN007
TEMPO 1110/1114 1/4SM FZFG OVC003
FM111700 16010KT P6SM BKN250



MET'MAP, your aeronautical weather chart ! - Copyright ORBIFLY December 2007 - Disclaimer

ORBIFLY MET'MAP TEAM :

Programming & Development : Alexandra Zaïnal
Concept & original design : Baudouin d'Aumeries
Assistance for programming : Marc-Olivier Méhu
Technical & hardware support : Manuel Goepfert

Contact : metmap@orbifly.com




SOURCES & CREDITS :

   NOAA       Earth
Advisory